sensor_id;sensor_type;location;lat;lon;timestamp;P1;durP1;ratioP1;P2;durP2;ratioP2
28551;SDS011;15752;49.560;8.708;2022-11-15T00:02:40;1.87;;;1.73;;
28551;SDS011;15752;49.560;8.708;2022-11-15T00:05:27;2.97;;;1.77;;
28551;SDS011;15752;49.560;8.708;2022-11-15T00:08:14;2.30;;;2.03;;
28551;SDS011;15752;49.560;8.708;2022-11-15T00:11:03;7.00;;;2.37;;
28551;SDS011;15752;49.560;8.708;2022-11-15T00:13:50;3.07;;;2.33;;
28551;SDS011;15752;49.560;8.708;2022-11-15T00:16:37;3.63;;;2.57;;
28551;SDS011;15752;49.560;8.708;2022-11-15T00:19:24;2.20;;;2.00;;
28551;SDS011;15752;49.560;8.708;2022-11-15T00:22:11;3.27;;;2.13;;
28551;SDS011;15752;49.560;8.708;2022-11-15T00:24:58;3.00;;;2.70;;
28551;SDS011;15752;49.560;8.708;2022-11-15T00:27:46;5.00;;;2.33;;
28551;SDS011;15752;49.560;8.708;2022-11-15T00:30:33;3.60;;;2.37;;
28551;SDS011;15752;49.560;8.708;2022-11-15T00:33:20;5.80;;;2.50;;
28551;SDS011;15752;49.560;8.708;2022-11-15T00:36:08;2.10;;;1.90;;
28551;SDS011;15752;49.560;8.708;2022-11-15T00:38:55;3.27;;;2.23;;
28551;SDS011;15752;49.560;8.708;2022-11-15T00:41:42;2.23;;;2.00;;
28551;SDS011;15752;49.560;8.708;2022-11-15T00:44:30;2.43;;;2.20;;
28551;SDS011;15752;49.560;8.708;2022-11-15T00:47:18;2.60;;;2.07;;
28551;SDS011;15752;49.560;8.708;2022-11-15T00:50:05;2.23;;;2.03;;
28551;SDS011;15752;49.560;8.708;2022-11-15T00:52:58;3.37;;;2.20;;
28551;SDS011;15752;49.560;8.708;2022-11-15T00:55:45;3.23;;;1.93;;
28551;SDS011;15752;49.560;8.708;2022-11-15T00:58:33;3.03;;;2.10;;
28551;SDS011;15752;49.560;8.708;2022-11-15T01:01:21;3.87;;;2.43;;
28551;SDS011;15752;49.560;8.708;2022-11-15T01:04:08;4.20;;;2.10;;
28551;SDS011;15752;49.560;8.708;2022-11-15T01:06:55;4.23;;;2.47;;
28551;SDS011;15752;49.560;8.708;2022-11-15T01:09:42;5.40;;;2.50;;
28551;SDS011;15752;49.560;8.708;2022-11-15T01:12:28;4.70;;;2.43;;
28551;SDS011;15752;49.560;8.708;2022-11-15T01:15:16;2.50;;;2.30;;
28551;SDS011;15752;49.560;8.708;2022-11-15T01:18:04;5.63;;;2.20;;
28551;SDS011;15752;49.560;8.708;2022-11-15T01:20:51;4.07;;;2.53;;
28551;SDS011;15752;49.560;8.708;2022-11-15T01:23:38;2.90;;;2.10;;
28551;SDS011;15752;49.560;8.708;2022-11-15T01:26:26;4.33;;;2.60;;
28551;SDS011;15752;49.560;8.708;2022-11-15T01:29:13;3.27;;;2.47;;
28551;SDS011;15752;49.560;8.708;2022-11-15T01:32:00;3.47;;;2.20;;
28551;SDS011;15752;49.560;8.708;2022-11-15T01:34:49;3.83;;;2.50;;
28551;SDS011;15752;49.560;8.708;2022-11-15T01:37:36;2.57;;;2.33;;
28551;SDS011;15752;49.560;8.708;2022-11-15T01:40:23;2.77;;;2.10;;
28551;SDS011;15752;49.560;8.708;2022-11-15T01:43:20;4.37;;;2.27;;
28551;SDS011;15752;49.560;8.708;2022-11-15T01:46:12;3.50;;;2.20;;
28551;SDS011;15752;49.560;8.708;2022-11-15T01:49:15;2.40;;;2.17;;
28551;SDS011;15752;49.560;8.708;2022-11-15T01:52:06;3.87;;;2.47;;
28551;SDS011;15752;49.560;8.708;2022-11-15T01:55:00;2.87;;;2.27;;
28551;SDS011;15752;49.560;8.708;2022-11-15T01:57:53;2.40;;;1.80;;
28551;SDS011;15752;49.560;8.708;2022-11-15T02:00:45;3.40;;;2.30;;
28551;SDS011;15752;49.560;8.708;2022-11-15T02:03:34;2.70;;;1.87;;
28551;SDS011;15752;49.560;8.708;2022-11-15T02:06:29;3.13;;;2.40;;
28551;SDS011;15752;49.560;8.708;2022-11-15T02:09:18;2.43;;;1.70;;
28551;SDS011;15752;49.560;8.708;2022-11-15T02:12:05;3.43;;;2.17;;
28551;SDS011;15752;49.560;8.708;2022-11-15T02:14:54;3.57;;;2.03;;
28551;SDS011;15752;49.560;8.708;2022-11-15T02:17:48;2.60;;;2.30;;
28551;SDS011;15752;49.560;8.708;2022-11-15T02:20:58;3.27;;;2.23;;
28551;SDS011;15752;49.560;8.708;2022-11-15T02:27:37;3.10;;;1.80;;
28551;SDS011;15752;49.560;8.708;2022-11-15T02:30:44;1.97;;;1.77;;
28551;SDS011;15752;49.560;8.708;2022-11-15T02:33:38;4.20;;;2.27;;
28551;SDS011;15752;49.560;8.708;2022-11-15T02:36:35;2.53;;;2.00;;
28551;SDS011;15752;49.560;8.708;2022-11-15T02:39:28;3.23;;;2.17;;
28551;SDS011;15752;49.560;8.708;2022-11-15T02:42:23;2.90;;;2.30;;
28551;SDS011;15752;49.560;8.708;2022-11-15T02:45:30;5.57;;;1.97;;
28551;SDS011;15752;49.560;8.708;2022-11-15T02:48:24;3.97;;;2.17;;
28551;SDS011;15752;49.560;8.708;2022-11-15T02:51:12;3.00;;;2.47;;
28551;SDS011;15752;49.560;8.708;2022-11-15T02:53:59;2.80;;;2.13;;
28551;SDS011;15752;49.560;8.708;2022-11-15T02:56:46;5.10;;;2.30;;
28551;SDS011;15752;49.560;8.708;2022-11-15T02:59:38;2.37;;;2.10;;
28551;SDS011;15752;49.560;8.708;2022-11-15T03:02:47;3.63;;;2.50;;
28551;SDS011;15752;49.560;8.708;2022-11-15T03:06:14;2.47;;;2.13;;
28551;SDS011;15752;49.560;8.708;2022-11-15T03:09:13;3.60;;;2.50;;
28551;SDS011;15752;49.560;8.708;2022-11-15T03:12:18;3.97;;;2.47;;
28551;SDS011;15752;49.560;8.708;2022-11-15T03:15:15;2.80;;;2.50;;
28551;SDS011;15752;49.560;8.708;2022-11-15T03:18:10;2.97;;;2.40;;
28551;SDS011;15752;49.560;8.708;2022-11-15T03:21:04;3.27;;;2.37;;
28551;SDS011;15752;49.560;8.708;2022-11-15T03:23:56;2.70;;;2.27;;
28551;SDS011;15752;49.560;8.708;2022-11-15T03:26:47;3.03;;;2.40;;
28551;SDS011;15752;49.560;8.708;2022-11-15T03:29:35;3.93;;;2.53;;
28551;SDS011;15752;49.560;8.708;2022-11-15T03:32:26;2.80;;;2.47;;
28551;SDS011;15752;49.560;8.708;2022-11-15T03:35:17;4.23;;;2.63;;
28551;SDS011;15752;49.560;8.708;2022-11-15T03:38:08;3.43;;;2.70;;
28551;SDS011;15752;49.560;8.708;2022-11-15T03:41:05;4.23;;;3.00;;
28551;SDS011;15752;49.560;8.708;2022-11-15T03:44:03;3.83;;;2.77;;
28551;SDS011;15752;49.560;8.708;2022-11-15T03:46:59;5.77;;;3.20;;
28551;SDS011;15752;49.560;8.708;2022-11-15T03:49:50;2.67;;;2.43;;
28551;SDS011;15752;49.560;8.708;2022-11-15T03:52:39;2.93;;;2.63;;
28551;SDS011;15752;49.560;8.708;2022-11-15T03:55:28;3.30;;;2.43;;
28551;SDS011;15752;49.560;8.708;2022-11-15T03:58:19;5.83;;;2.67;;
28551;SDS011;15752;49.560;8.708;2022-11-15T04:01:06;5.33;;;2.90;;
28551;SDS011;15752;49.560;8.708;2022-11-15T04:03:53;4.00;;;2.67;;
28551;SDS011;15752;49.560;8.708;2022-11-15T04:06:40;2.80;;;2.40;;
28551;SDS011;15752;49.560;8.708;2022-11-15T04:09:27;3.63;;;2.80;;
28551;SDS011;15752;49.560;8.708;2022-11-15T04:12:14;2.90;;;2.50;;
28551;SDS011;15752;49.560;8.708;2022-11-15T04:15:17;3.63;;;3.03;;
28551;SDS011;15752;49.560;8.708;2022-11-15T04:18:06;3.63;;;2.77;;
28551;SDS011;15752;49.560;8.708;2022-11-15T04:20:53;4.63;;;2.60;;
28551;SDS011;15752;49.560;8.708;2022-11-15T04:23:58;3.20;;;2.53;;
28551;SDS011;15752;49.560;8.708;2022-11-15T04:27:00;3.30;;;2.63;;
28551;SDS011;15752;49.560;8.708;2022-11-15T04:29:47;3.93;;;2.97;;
28551;SDS011;15752;49.560;8.708;2022-11-15T04:32:35;3.73;;;2.73;;
28551;SDS011;15752;49.560;8.708;2022-11-15T04:35:22;4.50;;;2.70;;
28551;SDS011;15752;49.560;8.708;2022-11-15T04:38:10;3.97;;;2.97;;
28551;SDS011;15752;49.560;8.708;2022-11-15T04:40:57;5.93;;;3.23;;
28551;SDS011;15752;49.560;8.708;2022-11-15T04:43:44;3.77;;;2.97;;
28551;SDS011;15752;49.560;8.708;2022-11-15T04:46:31;5.97;;;3.60;;
28551;SDS011;15752;49.560;8.708;2022-11-15T04:49:19;3.60;;;3.13;;
28551;SDS011;15752;49.560;8.708;2022-11-15T04:52:06;5.57;;;3.70;;
28551;SDS011;15752;49.560;8.708;2022-11-15T04:54:53;4.87;;;3.40;;
28551;SDS011;15752;49.560;8.708;2022-11-15T04:57:40;4.60;;;4.20;;
28551;SDS011;15752;49.560;8.708;2022-11-15T05:00:27;4.70;;;3.73;;
28551;SDS011;15752;49.560;8.708;2022-11-15T05:03:15;5.83;;;4.30;;
28551;SDS011;15752;49.560;8.708;2022-11-15T05:06:21;6.53;;;3.90;;
28551;SDS011;15752;49.560;8.708;2022-11-15T05:09:08;6.20;;;4.13;;
28551;SDS011;15752;49.560;8.708;2022-11-15T05:11:55;4.27;;;3.33;;
28551;SDS011;15752;49.560;8.708;2022-11-15T05:14:42;4.33;;;3.43;;
28551;SDS011;15752;49.560;8.708;2022-11-15T05:17:29;5.60;;;3.30;;
28551;SDS011;15752;49.560;8.708;2022-11-15T05:20:16;5.23;;;3.33;;
28551;SDS011;15752;49.560;8.708;2022-11-15T05:23:04;3.90;;;3.07;;
28551;SDS011;15752;49.560;8.708;2022-11-15T05:25:51;3.30;;;2.93;;
28551;SDS011;15752;49.560;8.708;2022-11-15T05:28:38;4.40;;;3.30;;
28551;SDS011;15752;49.560;8.708;2022-11-15T05:31:25;3.90;;;3.47;;
28551;SDS011;15752;49.560;8.708;2022-11-15T05:34:13;2.90;;;2.60;;
28551;SDS011;15752;49.560;8.708;2022-11-15T05:37:00;5.23;;;3.00;;
28551;SDS011;15752;49.560;8.708;2022-11-15T05:39:49;3.60;;;2.87;;
28551;SDS011;15752;49.560;8.708;2022-11-15T05:42:35;4.30;;;2.97;;
28551;SDS011;15752;49.560;8.708;2022-11-15T05:45:23;4.00;;;2.97;;
28551;SDS011;15752;49.560;8.708;2022-11-15T05:48:11;4.97;;;3.07;;
28551;SDS011;15752;49.560;8.708;2022-11-15T05:50:59;4.57;;;3.07;;
28551;SDS011;15752;49.560;8.708;2022-11-15T05:53:46;5.03;;;3.20;;
28551;SDS011;15752;49.560;8.708;2022-11-15T05:56:35;4.43;;;2.83;;
28551;SDS011;15752;49.560;8.708;2022-11-15T05:59:22;4.07;;;3.30;;
28551;SDS011;15752;49.560;8.708;2022-11-15T06:02:10;6.47;;;4.23;;
28551;SDS011;15752;49.560;8.708;2022-11-15T06:04:57;4.53;;;3.60;;
28551;SDS011;15752;49.560;8.708;2022-11-15T06:07:44;4.30;;;3.13;;
28551;SDS011;15752;49.560;8.708;2022-11-15T06:10:31;5.77;;;3.70;;
28551;SDS011;15752;49.560;8.708;2022-11-15T06:13:20;5.17;;;3.70;;
28551;SDS011;15752;49.560;8.708;2022-11-15T06:16:07;4.87;;;3.87;;
28551;SDS011;15752;49.560;8.708;2022-11-15T06:18:54;4.60;;;3.90;;
28551;SDS011;15752;49.560;8.708;2022-11-15T06:21:41;6.10;;;3.70;;
28551;SDS011;15752;49.560;8.708;2022-11-15T06:24:28;5.67;;;4.60;;
28551;SDS011;15752;49.560;8.708;2022-11-15T06:27:16;5.97;;;5.33;;
28551;SDS011;15752;49.560;8.708;2022-11-15T06:30:05;7.50;;;4.17;;
28551;SDS011;15752;49.560;8.708;2022-11-15T06:32:58;6.07;;;5.00;;
28551;SDS011;15752;49.560;8.708;2022-11-15T06:35:46;6.10;;;4.80;;
28551;SDS011;15752;49.560;8.708;2022-11-15T06:38:33;5.80;;;4.93;;
28551;SDS011;15752;49.560;8.708;2022-11-15T06:41:20;6.80;;;4.97;;
28551;SDS011;15752;49.560;8.708;2022-11-15T06:44:07;7.13;;;5.30;;
28551;SDS011;15752;49.560;8.708;2022-11-15T06:46:56;6.13;;;5.17;;
28551;SDS011;15752;49.560;8.708;2022-11-15T06:49:42;9.27;;;5.90;;
28551;SDS011;15752;49.560;8.708;2022-11-15T06:52:30;7.17;;;5.80;;
28551;SDS011;15752;49.560;8.708;2022-11-15T06:55:18;6.20;;;5.03;;
28551;SDS011;15752;49.560;8.708;2022-11-15T06:58:05;9.60;;;6.43;;
28551;SDS011;15752;49.560;8.708;2022-11-15T07:00:52;11.97;;;7.77;;
28551;SDS011;15752;49.560;8.708;2022-11-15T07:03:41;13.23;;;8.87;;
28551;SDS011;15752;49.560;8.708;2022-11-15T07:06:28;12.17;;;8.93;;
28551;SDS011;15752;49.560;8.708;2022-11-15T07:09:18;17.20;;;11.03;;
28551;SDS011;15752;49.560;8.708;2022-11-15T07:12:05;15.47;;;10.33;;
28551;SDS011;15752;49.560;8.708;2022-11-15T07:14:53;18.87;;;11.93;;
28551;SDS011;15752;49.560;8.708;2022-11-15T07:17:40;18.57;;;11.27;;
28551;SDS011;15752;49.560;8.708;2022-11-15T07:20:28;14.47;;;9.67;;
28551;SDS011;15752;49.560;8.708;2022-11-15T07:23:15;12.43;;;9.23;;
28551;SDS011;15752;49.560;8.708;2022-11-15T07:26:02;11.93;;;7.63;;
28551;SDS011;15752;49.560;8.708;2022-11-15T07:28:49;9.17;;;6.30;;
28551;SDS011;15752;49.560;8.708;2022-11-15T07:31:36;10.37;;;6.43;;
28551;SDS011;15752;49.560;8.708;2022-11-15T07:34:23;10.47;;;7.03;;
28551;SDS011;15752;49.560;8.708;2022-11-15T07:37:12;7.33;;;6.30;;
28551;SDS011;15752;49.560;8.708;2022-11-15T07:39:58;7.93;;;5.83;;
28551;SDS011;15752;49.560;8.708;2022-11-15T07:42:45;7.87;;;6.10;;
28551;SDS011;15752;49.560;8.708;2022-11-15T07:45:40;9.43;;;5.83;;
28551;SDS011;15752;49.560;8.708;2022-11-15T07:48:28;11.37;;;6.17;;
28551;SDS011;15752;49.560;8.708;2022-11-15T07:51:28;8.77;;;6.60;;
28551;SDS011;15752;49.560;8.708;2022-11-15T07:54:17;12.03;;;8.10;;
28551;SDS011;15752;49.560;8.708;2022-11-15T07:57:03;9.53;;;7.20;;
28551;SDS011;15752;49.560;8.708;2022-11-15T07:59:52;9.03;;;6.87;;
28551;SDS011;15752;49.560;8.708;2022-11-15T08:02:39;11.13;;;7.93;;
28551;SDS011;15752;49.560;8.708;2022-11-15T08:05:26;13.57;;;7.60;;
28551;SDS011;15752;49.560;8.708;2022-11-15T08:08:13;8.03;;;6.83;;
28551;SDS011;15752;49.560;8.708;2022-11-15T08:11:02;9.73;;;6.57;;
28551;SDS011;15752;49.560;8.708;2022-11-15T08:13:49;7.97;;;6.13;;
28551;SDS011;15752;49.560;8.708;2022-11-15T08:16:36;7.67;;;5.20;;
28551;SDS011;15752;49.560;8.708;2022-11-15T08:19:23;7.60;;;5.40;;
28551;SDS011;15752;49.560;8.708;2022-11-15T08:22:10;7.47;;;5.37;;
28551;SDS011;15752;49.560;8.708;2022-11-15T08:24:57;10.60;;;6.63;;
28551;SDS011;15752;49.560;8.708;2022-11-15T08:27:46;11.63;;;6.80;;
28551;SDS011;15752;49.560;8.708;2022-11-15T08:30:34;9.30;;;6.73;;
28551;SDS011;15752;49.560;8.708;2022-11-15T08:33:23;9.63;;;7.70;;
28551;SDS011;15752;49.560;8.708;2022-11-15T08:36:11;11.40;;;6.50;;
28551;SDS011;15752;49.560;8.708;2022-11-15T08:39:00;8.97;;;5.70;;
28551;SDS011;15752;49.560;8.708;2022-11-15T08:41:47;6.80;;;5.77;;
28551;SDS011;15752;49.560;8.708;2022-11-15T08:44:36;8.93;;;5.40;;
28551;SDS011;15752;49.560;8.708;2022-11-15T08:47:23;8.83;;;5.33;;
28551;SDS011;15752;49.560;8.708;2022-11-15T08:50:10;7.63;;;5.73;;
28551;SDS011;15752;49.560;8.708;2022-11-15T08:52:57;7.93;;;6.17;;
28551;SDS011;15752;49.560;8.708;2022-11-15T08:55:50;9.13;;;6.30;;
28551;SDS011;15752;49.560;8.708;2022-11-15T08:58:37;8.70;;;6.57;;
28551;SDS011;15752;49.560;8.708;2022-11-15T09:01:26;9.40;;;6.70;;
28551;SDS011;15752;49.560;8.708;2022-11-15T09:04:13;7.67;;;6.77;;
28551;SDS011;15752;49.560;8.708;2022-11-15T09:07:00;9.03;;;7.00;;
28551;SDS011;15752;49.560;8.708;2022-11-15T09:09:47;9.70;;;6.63;;
28551;SDS011;15752;49.560;8.708;2022-11-15T09:12:34;8.80;;;7.33;;
28551;SDS011;15752;49.560;8.708;2022-11-15T09:15:22;9.07;;;6.90;;
28551;SDS011;15752;49.560;8.708;2022-11-15T09:18:10;8.17;;;6.23;;
28551;SDS011;15752;49.560;8.708;2022-11-15T09:20:57;7.80;;;5.70;;
28551;SDS011;15752;49.560;8.708;2022-11-15T09:23:44;8.57;;;6.57;;
28551;SDS011;15752;49.560;8.708;2022-11-15T09:26:31;8.07;;;6.03;;
28551;SDS011;15752;49.560;8.708;2022-11-15T09:29:18;9.70;;;5.87;;
28551;SDS011;15752;49.560;8.708;2022-11-15T09:32:05;10.17;;;5.77;;
28551;SDS011;15752;49.560;8.708;2022-11-15T09:34:53;8.63;;;6.10;;
28551;SDS011;15752;49.560;8.708;2022-11-15T09:37:40;8.87;;;5.80;;
28551;SDS011;15752;49.560;8.708;2022-11-15T09:40:29;9.90;;;6.43;;
28551;SDS011;15752;49.560;8.708;2022-11-15T09:43:24;8.57;;;5.80;;
28551;SDS011;15752;49.560;8.708;2022-11-15T09:46:20;7.70;;;5.80;;
28551;SDS011;15752;49.560;8.708;2022-11-15T09:49:18;6.13;;;5.00;;
28551;SDS011;15752;49.560;8.708;2022-11-15T09:51:58;10.17;;;7.47;;
28551;SDS011;15752;49.560;8.708;2022-11-15T09:54:28;10.50;;;7.07;;
28551;SDS011;15752;49.560;8.708;2022-11-15T09:57:21;4.10;;;3.23;;
28551;SDS011;15752;49.560;8.708;2022-11-15T09:59:59;3.13;;;2.30;;
28551;SDS011;15752;49.560;8.708;2022-11-15T10:03:06;3.40;;;1.90;;
28551;SDS011;15752;49.560;8.708;2022-11-15T10:05:40;2.87;;;1.60;;
28551;SDS011;15752;49.560;8.708;2022-11-15T10:08:23;1.70;;;1.53;;
28551;SDS011;15752;49.560;8.708;2022-11-15T10:11:02;2.00;;;1.70;;
28551;SDS011;15752;49.560;8.708;2022-11-15T10:13:54;2.00;;;1.80;;
28551;SDS011;15752;49.560;8.708;2022-11-15T10:16:36;2.30;;;2.00;;
28551;SDS011;15752;49.560;8.708;2022-11-15T10:19:50;3.07;;;2.37;;
28551;SDS011;15752;49.560;8.708;2022-11-15T10:22:37;2.30;;;2.07;;
28551;SDS011;15752;49.560;8.708;2022-11-15T10:25:19;8.47;;;6.40;;
28551;SDS011;15752;49.560;8.708;2022-11-15T10:27:52;7.03;;;5.97;;
28551;SDS011;15752;49.560;8.708;2022-11-15T10:30:29;10.33;;;7.57;;
28551;SDS011;15752;49.560;8.708;2022-11-15T10:33:09;5.30;;;4.40;;
28551;SDS011;15752;49.560;8.708;2022-11-15T10:38:59;5.67;;;4.30;;
28551;SDS011;15752;49.560;8.708;2022-11-15T10:47:21;3.83;;;2.07;;
28551;SDS011;15752;49.560;8.708;2022-11-15T10:50:05;4.23;;;3.40;;
28551;SDS011;15752;49.560;8.708;2022-11-15T10:52:54;4.93;;;4.40;;
28551;SDS011;15752;49.560;8.708;2022-11-15T10:55:24;5.47;;;2.77;;
28551;SDS011;15752;49.560;8.708;2022-11-15T10:57:58;3.27;;;2.97;;
28551;SDS011;15752;49.560;8.708;2022-11-15T11:00:32;4.73;;;2.67;;
28551;SDS011;15752;49.560;8.708;2022-11-15T11:03:05;2.70;;;1.93;;
28551;SDS011;15752;49.560;8.708;2022-11-15T11:06:02;4.47;;;3.87;;
28551;SDS011;15752;49.560;8.708;2022-11-15T11:08:34;6.53;;;5.03;;
28551;SDS011;15752;49.560;8.708;2022-11-15T11:11:03;4.23;;;3.10;;
28551;SDS011;15752;49.560;8.708;2022-11-15T11:13:35;5.10;;;2.90;;
28551;SDS011;15752;49.560;8.708;2022-11-15T11:16:09;3.17;;;2.20;;
28551;SDS011;15752;49.560;8.708;2022-11-15T11:18:56;3.70;;;2.63;;
28551;SDS011;15752;49.560;8.708;2022-11-15T11:21:41;3.77;;;3.30;;
28551;SDS011;15752;49.560;8.708;2022-11-15T11:24:20;2.93;;;1.87;;
28551;SDS011;15752;49.560;8.708;2022-11-15T11:27:02;1.67;;;1.33;;
28551;SDS011;15752;49.560;8.708;2022-11-15T11:29:59;3.17;;;2.87;;
28551;SDS011;15752;49.560;8.708;2022-11-15T11:35:50;1.93;;;1.67;;
28551;SDS011;15752;49.560;8.708;2022-11-15T11:38:35;2.07;;;1.40;;
28551;SDS011;15752;49.560;8.708;2022-11-15T11:44:30;2.90;;;2.63;;
28551;SDS011;15752;49.560;8.708;2022-11-15T11:47:06;1.70;;;1.40;;
28551;SDS011;15752;49.560;8.708;2022-11-15T11:49:40;2.80;;;1.80;;
28551;SDS011;15752;49.560;8.708;2022-11-15T11:52:15;2.60;;;1.30;;
28551;SDS011;15752;49.560;8.708;2022-11-15T11:54:52;2.43;;;1.80;;
28551;SDS011;15752;49.560;8.708;2022-11-15T11:57:31;3.27;;;1.10;;
28551;SDS011;15752;49.560;8.708;2022-11-15T12:00:13;3.57;;;2.60;;
28551;SDS011;15752;49.560;8.708;2022-11-15T12:02:49;4.20;;;3.80;;
28551;SDS011;15752;49.560;8.708;2022-11-15T12:05:34;3.43;;;2.13;;
28551;SDS011;15752;49.560;8.708;2022-11-15T12:08:17;1.80;;;1.43;;
28551;SDS011;15752;49.560;8.708;2022-11-15T12:11:03;2.97;;;1.10;;
28551;SDS011;15752;49.560;8.708;2022-11-15T12:13:38;2.17;;;1.40;;
28551;SDS011;15752;49.560;8.708;2022-11-15T12:16:10;6.13;;;5.20;;
28551;SDS011;15752;49.560;8.708;2022-11-15T12:18:46;4.67;;;4.10;;
28551;SDS011;15752;49.560;8.708;2022-11-15T12:21:20;3.40;;;3.10;;
28551;SDS011;15752;49.560;8.708;2022-11-15T12:24:05;8.13;;;3.20;;
28551;SDS011;15752;49.560;8.708;2022-11-15T12:26:41;3.93;;;3.50;;
28551;SDS011;15752;49.560;8.708;2022-11-15T12:29:18;3.10;;;2.50;;
28551;SDS011;15752;49.560;8.708;2022-11-15T12:31:54;2.60;;;1.90;;
28551;SDS011;15752;49.560;8.708;2022-11-15T12:34:38;3.07;;;1.63;;
28551;SDS011;15752;49.560;8.708;2022-11-15T12:46:10;9.73;;;8.30;;
28551;SDS011;15752;49.560;8.708;2022-11-15T12:48:52;4.47;;;3.73;;
28551;SDS011;15752;49.560;8.708;2022-11-15T12:54:55;4.77;;;2.87;;
28551;SDS011;15752;49.560;8.708;2022-11-15T12:58:03;3.90;;;2.80;;
28551;SDS011;15752;49.560;8.708;2022-11-15T13:00:56;3.43;;;2.27;;
28551;SDS011;15752;49.560;8.708;2022-11-15T13:03:25;5.55;;;4.05;;
28551;SDS011;15752;49.560;8.708;2022-11-15T13:06:09;3.90;;;3.37;;
28551;SDS011;15752;49.560;8.708;2022-11-15T13:09:49;4.17;;;2.70;;
28551;SDS011;15752;49.560;8.708;2022-11-15T13:15:34;3.47;;;2.70;;
28551;SDS011;15752;49.560;8.708;2022-11-15T13:18:28;3.80;;;2.80;;
28551;SDS011;15752;49.560;8.708;2022-11-15T13:21:04;3.30;;;1.80;;
28551;SDS011;15752;49.560;8.708;2022-11-15T13:24:12;3.70;;;2.17;;
28551;SDS011;15752;49.560;8.708;2022-11-15T13:26:43;2.43;;;1.80;;
28551;SDS011;15752;49.560;8.708;2022-11-15T13:29:14;2.70;;;1.60;;
28551;SDS011;15752;49.560;8.708;2022-11-15T13:31:45;1.50;;;1.40;;
28551;SDS011;15752;49.560;8.708;2022-11-15T13:34:25;1.90;;;1.40;;
28551;SDS011;15752;49.560;8.708;2022-11-15T13:37:27;2.60;;;1.37;;
28551;SDS011;15752;49.560;8.708;2022-11-15T13:42:55;2.40;;;1.90;;
28551;SDS011;15752;49.560;8.708;2022-11-15T13:45:24;2.40;;;2.20;;
28551;SDS011;15752;49.560;8.708;2022-11-15T13:47:54;2.50;;;2.30;;
28551;SDS011;15752;49.560;8.708;2022-11-15T13:50:25;2.97;;;2.77;;
28551;SDS011;15752;49.560;8.708;2022-11-15T13:52:59;2.97;;;2.60;;
28551;SDS011;15752;49.560;8.708;2022-11-15T13:55:32;3.50;;;2.17;;
28551;SDS011;15752;49.560;8.708;2022-11-15T13:58:02;2.37;;;1.63;;
28551;SDS011;15752;49.560;8.708;2022-11-15T14:00:35;2.00;;;1.60;;
28551;SDS011;15752;49.560;8.708;2022-11-15T14:03:07;2.57;;;1.63;;
28551;SDS011;15752;49.560;8.708;2022-11-15T14:06:02;2.17;;;1.30;;
28551;SDS011;15752;49.560;8.708;2022-11-15T14:08:36;3.63;;;1.50;;
28551;SDS011;15752;49.560;8.708;2022-11-15T14:11:09;2.83;;;1.70;;
28551;SDS011;15752;49.560;8.708;2022-11-15T14:13:58;3.03;;;1.60;;
28551;SDS011;15752;49.560;8.708;2022-11-15T14:16:39;2.87;;;2.07;;
28551;SDS011;15752;49.560;8.708;2022-11-15T14:19:10;2.90;;;2.60;;
28551;SDS011;15752;49.560;8.708;2022-11-15T14:22:14;1.60;;;1.43;;
28551;SDS011;15752;49.560;8.708;2022-11-15T14:24:47;2.27;;;1.37;;
28551;SDS011;15752;49.560;8.708;2022-11-15T14:27:43;3.23;;;1.63;;
28551;SDS011;15752;49.560;8.708;2022-11-15T14:30:40;1.37;;;1.10;;
28551;SDS011;15752;49.560;8.708;2022-11-15T14:36:11;3.07;;;1.80;;
28551;SDS011;15752;49.560;8.708;2022-11-15T14:38:42;1.70;;;1.57;;
28551;SDS011;15752;49.560;8.708;2022-11-15T14:41:17;2.47;;;1.80;;
28551;SDS011;15752;49.560;8.708;2022-11-15T14:43:49;2.17;;;1.67;;
28551;SDS011;15752;49.560;8.708;2022-11-15T14:46:18;2.03;;;1.00;;
28551;SDS011;15752;49.560;8.708;2022-11-15T14:48:49;2.27;;;1.20;;
28551;SDS011;15752;49.560;8.708;2022-11-15T14:51:19;1.50;;;1.27;;
28551;SDS011;15752;49.560;8.708;2022-11-15T14:53:48;2.53;;;1.07;;
28551;SDS011;15752;49.560;8.708;2022-11-15T14:56:17;2.27;;;1.43;;
28551;SDS011;15752;49.560;8.708;2022-11-15T14:58:45;2.17;;;1.70;;
28551;SDS011;15752;49.560;8.708;2022-11-15T15:01:17;3.20;;;1.80;;
28551;SDS011;15752;49.560;8.708;2022-11-15T15:03:49;2.13;;;1.70;;
28551;SDS011;15752;49.560;8.708;2022-11-15T15:06:20;2.13;;;1.80;;
28551;SDS011;15752;49.560;8.708;2022-11-15T15:08:49;2.97;;;1.70;;
28551;SDS011;15752;49.560;8.708;2022-11-15T15:11:19;2.73;;;1.37;;
28551;SDS011;15752;49.560;8.708;2022-11-15T15:13:51;1.40;;;1.30;;
28551;SDS011;15752;49.560;8.708;2022-11-15T15:16:24;1.43;;;1.33;;
28551;SDS011;15752;49.560;8.708;2022-11-15T15:18:53;1.37;;;1.00;;
28551;SDS011;15752;49.560;8.708;2022-11-15T15:21:22;1.70;;;1.00;;
28551;SDS011;15752;49.560;8.708;2022-11-15T15:24:02;1.00;;;0.80;;
28551;SDS011;15752;49.560;8.708;2022-11-15T15:26:31;2.37;;;1.10;;
28551;SDS011;15752;49.560;8.708;2022-11-15T15:29:02;1.47;;;1.20;;
28551;SDS011;15752;49.560;8.708;2022-11-15T15:31:32;1.20;;;1.10;;
28551;SDS011;15752;49.560;8.708;2022-11-15T15:34:01;1.50;;;0.90;;
28551;SDS011;15752;49.560;8.708;2022-11-15T15:36:29;2.73;;;1.07;;
28551;SDS011;15752;49.560;8.708;2022-11-15T15:38:58;2.93;;;1.20;;
28551;SDS011;15752;49.560;8.708;2022-11-15T15:41:26;4.60;;;1.10;;
28551;SDS011;15752;49.560;8.708;2022-11-15T15:43:55;2.40;;;1.13;;
28551;SDS011;15752;49.560;8.708;2022-11-15T15:46:24;2.43;;;1.70;;
28551;SDS011;15752;49.560;8.708;2022-11-15T15:48:55;4.50;;;2.23;;
28551;SDS011;15752;49.560;8.708;2022-11-15T15:51:24;3.03;;;2.50;;
28551;SDS011;15752;49.560;8.708;2022-11-15T15:53:52;4.07;;;3.07;;
28551;SDS011;15752;49.560;8.708;2022-11-15T15:56:23;4.40;;;2.77;;
28551;SDS011;15752;49.560;8.708;2022-11-15T15:58:52;4.40;;;3.60;;
28551;SDS011;15752;49.560;8.708;2022-11-15T16:01:21;5.17;;;2.80;;
28551;SDS011;15752;49.560;8.708;2022-11-15T16:03:51;3.00;;;2.70;;
28551;SDS011;15752;49.560;8.708;2022-11-15T16:06:27;3.00;;;2.00;;
28551;SDS011;15752;49.560;8.708;2022-11-15T16:09:04;2.43;;;2.00;;
28551;SDS011;15752;49.560;8.708;2022-11-15T16:11:43;2.00;;;1.77;;
28551;SDS011;15752;49.560;8.708;2022-11-15T16:14:13;4.83;;;1.57;;
28551;SDS011;15752;49.560;8.708;2022-11-15T16:16:41;3.17;;;1.73;;
28551;SDS011;15752;49.560;8.708;2022-11-15T16:19:10;3.07;;;2.00;;
28551;SDS011;15752;49.560;8.708;2022-11-15T16:21:40;3.90;;;2.50;;
28551;SDS011;15752;49.560;8.708;2022-11-15T16:24:09;2.83;;;2.30;;
28551;SDS011;15752;49.560;8.708;2022-11-15T16:26:37;3.37;;;2.07;;
28551;SDS011;15752;49.560;8.708;2022-11-15T16:29:07;4.20;;;1.90;;
28551;SDS011;15752;49.560;8.708;2022-11-15T16:31:36;2.40;;;1.83;;
28551;SDS011;15752;49.560;8.708;2022-11-15T16:34:04;2.37;;;1.60;;
28551;SDS011;15752;49.560;8.708;2022-11-15T16:36:33;3.87;;;1.40;;
28551;SDS011;15752;49.560;8.708;2022-11-15T16:39:04;2.67;;;1.57;;
28551;SDS011;15752;49.560;8.708;2022-11-15T16:41:33;6.40;;;2.07;;
28551;SDS011;15752;49.560;8.708;2022-11-15T16:44:01;3.70;;;2.50;;
28551;SDS011;15752;49.560;8.708;2022-11-15T16:46:30;5.07;;;2.90;;
28551;SDS011;15752;49.560;8.708;2022-11-15T16:48:58;5.43;;;2.53;;
28551;SDS011;15752;49.560;8.708;2022-11-15T16:51:27;4.67;;;2.20;;
28551;SDS011;15752;49.560;8.708;2022-11-15T16:53:55;3.27;;;2.70;;
28551;SDS011;15752;49.560;8.708;2022-11-15T16:56:26;7.23;;;4.97;;
28551;SDS011;15752;49.560;8.708;2022-11-15T16:58:56;6.07;;;3.30;;
28551;SDS011;15752;49.560;8.708;2022-11-15T17:01:27;4.03;;;3.00;;
28551;SDS011;15752;49.560;8.708;2022-11-15T17:03:58;6.53;;;3.13;;
28551;SDS011;15752;49.560;8.708;2022-11-15T17:06:38;2.57;;;2.10;;
28551;SDS011;15752;49.560;8.708;2022-11-15T17:09:09;3.20;;;2.20;;